sensor_id;sensor_type;location;lat;lon;timestamp;P1;durP1;ratioP1;P2;durP2;ratioP2
65853;SDS011;52627;48.838;2.402;2023-04-16T00:01:57;8.30;;;3.10;;
65853;SDS011;52627;48.838;2.402;2023-04-16T00:04:24;6.50;;;3.10;;
65853;SDS011;52627;48.838;2.402;2023-04-16T00:06:51;7.80;;;3.50;;
65853;SDS011;52627;48.838;2.402;2023-04-16T00:09:18;7.10;;;3.00;;
65853;SDS011;52627;48.838;2.402;2023-04-16T00:11:44;6.70;;;3.30;;
65853;SDS011;52627;48.838;2.402;2023-04-16T00:14:11;7.30;;;3.40;;
65853;SDS011;52627;48.838;2.402;2023-04-16T00:16:38;5.40;;;3.30;;
65853;SDS011;52627;48.838;2.402;2023-04-16T00:19:04;7.20;;;3.50;;
65853;SDS011;52627;48.838;2.402;2023-04-16T00:21:31;5.90;;;3.40;;
65853;SDS011;52627;48.838;2.402;2023-04-16T00:23:58;9.20;;;3.80;;
65853;SDS011;52627;48.838;2.402;2023-04-16T00:26:25;7.20;;;3.70;;
65853;SDS011;52627;48.838;2.402;2023-04-16T00:28:51;7.30;;;3.50;;
65853;SDS011;52627;48.838;2.402;2023-04-16T00:31:26;7.50;;;3.60;;
65853;SDS011;52627;48.838;2.402;2023-04-16T00:33:57;8.30;;;3.50;;
65853;SDS011;52627;48.838;2.402;2023-04-16T00:36:26;5.20;;;3.40;;
65853;SDS011;52627;48.838;2.402;2023-04-16T00:38:54;9.70;;;4.10;;
65853;SDS011;52627;48.838;2.402;2023-04-16T00:41:21;7.50;;;4.00;;
65853;SDS011;52627;48.838;2.402;2023-04-16T00:43:49;7.20;;;3.70;;
65853;SDS011;52627;48.838;2.402;2023-04-16T00:46:18;10.30;;;3.80;;
65853;SDS011;52627;48.838;2.402;2023-04-16T00:48:46;7.10;;;3.50;;
65853;SDS011;52627;48.838;2.402;2023-04-16T00:51:15;7.80;;;3.90;;
65853;SDS011;52627;48.838;2.402;2023-04-16T00:53:43;9.60;;;3.40;;
65853;SDS011;52627;48.838;2.402;2023-04-16T00:56:12;7.30;;;3.80;;
65853;SDS011;52627;48.838;2.402;2023-04-16T00:58:39;7.80;;;3.70;;
65853;SDS011;52627;48.838;2.402;2023-04-16T01:01:05;8.60;;;3.90;;
65853;SDS011;52627;48.838;2.402;2023-04-16T01:03:41;10.60;;;3.80;;
65853;SDS011;52627;48.838;2.402;2023-04-16T01:06:10;8.80;;;3.90;;
65853;SDS011;52627;48.838;2.402;2023-04-16T01:08:38;5.90;;;3.70;;
65853;SDS011;52627;48.838;2.402;2023-04-16T01:11:05;9.00;;;4.30;;
65853;SDS011;52627;48.838;2.402;2023-04-16T01:13:32;6.90;;;3.80;;
65853;SDS011;52627;48.838;2.402;2023-04-16T01:16:00;7.60;;;3.90;;
65853;SDS011;52627;48.838;2.402;2023-04-16T01:18:26;8.90;;;4.00;;
65853;SDS011;52627;48.838;2.402;2023-04-16T01:20:53;8.20;;;4.20;;
65853;SDS011;52627;48.838;2.402;2023-04-16T01:23:20;6.80;;;4.00;;
65853;SDS011;52627;48.838;2.402;2023-04-16T01:25:46;7.10;;;3.80;;
65853;SDS011;52627;48.838;2.402;2023-04-16T01:28:13;8.90;;;3.90;;
65853;SDS011;52627;48.838;2.402;2023-04-16T01:30:40;8.10;;;4.10;;
65853;SDS011;52627;48.838;2.402;2023-04-16T01:33:09;8.80;;;3.70;;
65853;SDS011;52627;48.838;2.402;2023-04-16T01:35:37;7.50;;;4.30;;
65853;SDS011;52627;48.838;2.402;2023-04-16T01:38:06;5.90;;;3.70;;
65853;SDS011;52627;48.838;2.402;2023-04-16T01:40:34;10.60;;;4.50;;
65853;SDS011;52627;48.838;2.402;2023-04-16T01:43:02;7.60;;;3.90;;
65853;SDS011;52627;48.838;2.402;2023-04-16T01:45:33;6.80;;;3.90;;
65853;SDS011;52627;48.838;2.402;2023-04-16T01:48:01;7.70;;;3.80;;
65853;SDS011;52627;48.838;2.402;2023-04-16T01:50:29;11.80;;;4.30;;
65853;SDS011;52627;48.838;2.402;2023-04-16T01:52:56;8.60;;;4.10;;
65853;SDS011;52627;48.838;2.402;2023-04-16T01:55:23;6.80;;;3.90;;
65853;SDS011;52627;48.838;2.402;2023-04-16T01:57:50;7.40;;;4.20;;
65853;SDS011;52627;48.838;2.402;2023-04-16T02:00:17;12.40;;;4.70;;
65853;SDS011;52627;48.838;2.402;2023-04-16T02:02:44;10.70;;;4.40;;
65853;SDS011;52627;48.838;2.402;2023-04-16T02:05:11;7.60;;;4.10;;
65853;SDS011;52627;48.838;2.402;2023-04-16T02:07:38;11.70;;;4.50;;
65853;SDS011;52627;48.838;2.402;2023-04-16T02:10:05;9.20;;;4.30;;
65853;SDS011;52627;48.838;2.402;2023-04-16T02:12:34;7.30;;;4.20;;
65853;SDS011;52627;48.838;2.402;2023-04-16T02:15:01;8.60;;;4.20;;
65853;SDS011;52627;48.838;2.402;2023-04-16T02:17:28;8.00;;;4.40;;
65853;SDS011;52627;48.838;2.402;2023-04-16T02:19:55;9.10;;;4.40;;
65853;SDS011;52627;48.838;2.402;2023-04-16T02:22:22;7.80;;;4.60;;
65853;SDS011;52627;48.838;2.402;2023-04-16T02:24:48;10.10;;;4.00;;
65853;SDS011;52627;48.838;2.402;2023-04-16T02:27:16;11.50;;;4.70;;
65853;SDS011;52627;48.838;2.402;2023-04-16T02:29:43;8.80;;;4.60;;
65853;SDS011;52627;48.838;2.402;2023-04-16T02:32:10;8.20;;;4.30;;
65853;SDS011;52627;48.838;2.402;2023-04-16T02:34:36;9.80;;;4.90;;
65853;SDS011;52627;48.838;2.402;2023-04-16T02:37:05;9.40;;;4.70;;
65853;SDS011;52627;48.838;2.402;2023-04-16T02:39:32;8.80;;;4.30;;
65853;SDS011;52627;48.838;2.402;2023-04-16T02:41:59;9.60;;;4.90;;
65853;SDS011;52627;48.838;2.402;2023-04-16T02:44:27;9.90;;;4.90;;
65853;SDS011;52627;48.838;2.402;2023-04-16T02:46:54;8.10;;;4.40;;
65853;SDS011;52627;48.838;2.402;2023-04-16T02:49:21;8.10;;;4.60;;
65853;SDS011;52627;48.838;2.402;2023-04-16T02:51:48;8.80;;;4.80;;
65853;SDS011;52627;48.838;2.402;2023-04-16T02:54:14;8.80;;;4.90;;
65853;SDS011;52627;48.838;2.402;2023-04-16T02:56:41;10.00;;;5.00;;
65853;SDS011;52627;48.838;2.402;2023-04-16T02:59:08;10.30;;;5.20;;
65853;SDS011;52627;48.838;2.402;2023-04-16T03:01:35;9.70;;;5.40;;
65853;SDS011;52627;48.838;2.402;2023-04-16T03:04:02;9.30;;;4.90;;
65853;SDS011;52627;48.838;2.402;2023-04-16T03:06:28;12.00;;;5.50;;
65853;SDS011;52627;48.838;2.402;2023-04-16T03:08:55;10.90;;;5.30;;
65853;SDS011;52627;48.838;2.402;2023-04-16T03:11:22;8.00;;;5.30;;
65853;SDS011;52627;48.838;2.402;2023-04-16T03:13:49;9.90;;;5.30;;
65853;SDS011;52627;48.838;2.402;2023-04-16T03:16:15;9.10;;;5.40;;
65853;SDS011;52627;48.838;2.402;2023-04-16T03:18:42;10.60;;;5.10;;
65853;SDS011;52627;48.838;2.402;2023-04-16T03:21:09;11.40;;;5.70;;
65853;SDS011;52627;48.838;2.402;2023-04-16T03:23:36;9.90;;;5.60;;
65853;SDS011;52627;48.838;2.402;2023-04-16T03:26:03;14.60;;;5.80;;
65853;SDS011;52627;48.838;2.402;2023-04-16T03:28:29;9.80;;;5.20;;
65853;SDS011;52627;48.838;2.402;2023-04-16T03:30:56;10.80;;;5.80;;
65853;SDS011;52627;48.838;2.402;2023-04-16T03:33:23;10.10;;;5.80;;
65853;SDS011;52627;48.838;2.402;2023-04-16T03:35:57;9.90;;;5.30;;
65853;SDS011;52627;48.838;2.402;2023-04-16T03:38:24;8.60;;;5.10;;
65853;SDS011;52627;48.838;2.402;2023-04-16T03:40:53;12.30;;;5.30;;
65853;SDS011;52627;48.838;2.402;2023-04-16T03:43:20;11.80;;;5.10;;
65853;SDS011;52627;48.838;2.402;2023-04-16T03:45:47;8.70;;;5.70;;
65853;SDS011;52627;48.838;2.402;2023-04-16T03:48:13;13.80;;;6.10;;
65853;SDS011;52627;48.838;2.402;2023-04-16T03:50:44;9.00;;;5.00;;
65853;SDS011;52627;48.838;2.402;2023-04-16T03:53:13;8.20;;;5.20;;
65853;SDS011;52627;48.838;2.402;2023-04-16T03:55:40;9.00;;;5.50;;
65853;SDS011;52627;48.838;2.402;2023-04-16T03:58:08;11.70;;;5.60;;
65853;SDS011;52627;48.838;2.402;2023-04-16T04:00:35;11.20;;;5.50;;
65853;SDS011;52627;48.838;2.402;2023-04-16T04:03:02;10.90;;;5.90;;
65853;SDS011;52627;48.838;2.402;2023-04-16T04:05:29;9.80;;;5.80;;
65853;SDS011;52627;48.838;2.402;2023-04-16T04:07:56;10.60;;;5.80;;
65853;SDS011;52627;48.838;2.402;2023-04-16T04:10:22;10.20;;;6.20;;
65853;SDS011;52627;48.838;2.402;2023-04-16T04:12:49;11.10;;;6.00;;
65853;SDS011;52627;48.838;2.402;2023-04-16T04:15:16;12.00;;;6.80;;
65853;SDS011;52627;48.838;2.402;2023-04-16T04:17:43;10.40;;;7.00;;
65853;SDS011;52627;48.838;2.402;2023-04-16T04:20:10;13.70;;;7.30;;
65853;SDS011;52627;48.838;2.402;2023-04-16T04:22:37;14.40;;;6.90;;
65853;SDS011;52627;48.838;2.402;2023-04-16T04:25:04;18.20;;;9.10;;
65853;SDS011;52627;48.838;2.402;2023-04-16T04:27:31;14.90;;;9.00;;
65853;SDS011;52627;48.838;2.402;2023-04-16T04:29:58;13.80;;;9.10;;
65853;SDS011;52627;48.838;2.402;2023-04-16T04:32:25;16.70;;;9.10;;
65853;SDS011;52627;48.838;2.402;2023-04-16T04:34:52;17.00;;;10.70;;
65853;SDS011;52627;48.838;2.402;2023-04-16T04:37:19;18.90;;;11.10;;
65853;SDS011;52627;48.838;2.402;2023-04-16T04:39:46;17.30;;;10.30;;
65853;SDS011;52627;48.838;2.402;2023-04-16T04:42:16;20.10;;;11.00;;
65853;SDS011;52627;48.838;2.402;2023-04-16T04:44:44;18.20;;;11.40;;
65853;SDS011;52627;48.838;2.402;2023-04-16T04:47:12;18.30;;;10.50;;
65853;SDS011;52627;48.838;2.402;2023-04-16T04:49:39;20.20;;;11.50;;
65853;SDS011;52627;48.838;2.402;2023-04-16T04:52:07;20.10;;;11.70;;
65853;SDS011;52627;48.838;2.402;2023-04-16T04:54:34;19.80;;;11.10;;
65853;SDS011;52627;48.838;2.402;2023-04-16T04:57:01;17.10;;;10.50;;
65853;SDS011;52627;48.838;2.402;2023-04-16T04:59:27;20.00;;;12.30;;
65853;SDS011;52627;48.838;2.402;2023-04-16T05:01:54;22.40;;;12.30;;
65853;SDS011;52627;48.838;2.402;2023-04-16T05:04:21;22.30;;;12.00;;
65853;SDS011;52627;48.838;2.402;2023-04-16T05:06:48;19.40;;;12.60;;
65853;SDS011;52627;48.838;2.402;2023-04-16T05:09:15;21.00;;;12.50;;
65853;SDS011;52627;48.838;2.402;2023-04-16T05:11:41;20.30;;;11.90;;
65853;SDS011;52627;48.838;2.402;2023-04-16T05:14:08;19.90;;;11.90;;
65853;SDS011;52627;48.838;2.402;2023-04-16T05:16:35;23.20;;;12.60;;
65853;SDS011;52627;48.838;2.402;2023-04-16T05:19:03;22.60;;;12.80;;
65853;SDS011;52627;48.838;2.402;2023-04-16T05:21:30;21.10;;;13.10;;
65853;SDS011;52627;48.838;2.402;2023-04-16T05:23:57;20.90;;;11.80;;
65853;SDS011;52627;48.838;2.402;2023-04-16T05:26:24;24.60;;;13.30;;
65853;SDS011;52627;48.838;2.402;2023-04-16T05:28:51;21.70;;;12.50;;
65853;SDS011;52627;48.838;2.402;2023-04-16T05:31:17;21.40;;;13.40;;
65853;SDS011;52627;48.838;2.402;2023-04-16T05:33:44;21.90;;;13.50;;
65853;SDS011;52627;48.838;2.402;2023-04-16T05:36:11;24.20;;;13.70;;
65853;SDS011;52627;48.838;2.402;2023-04-16T05:38:38;28.80;;;13.90;;
65853;SDS011;52627;48.838;2.402;2023-04-16T05:41:04;24.60;;;15.20;;
65853;SDS011;52627;48.838;2.402;2023-04-16T05:43:31;25.20;;;14.00;;
65853;SDS011;52627;48.838;2.402;2023-04-16T05:45:58;26.80;;;13.70;;
65853;SDS011;52627;48.838;2.402;2023-04-16T05:48:25;23.20;;;13.20;;
65853;SDS011;52627;48.838;2.402;2023-04-16T05:50:51;27.50;;;16.20;;
65853;SDS011;52627;48.838;2.402;2023-04-16T05:53:19;25.20;;;14.90;;
65853;SDS011;52627;48.838;2.402;2023-04-16T05:55:46;34.90;;;18.30;;
65853;SDS011;52627;48.838;2.402;2023-04-16T05:58:13;28.00;;;15.90;;
65853;SDS011;52627;48.838;2.402;2023-04-16T06:00:39;28.30;;;16.00;;
65853;SDS011;52627;48.838;2.402;2023-04-16T06:03:06;26.60;;;16.50;;
65853;SDS011;52627;48.838;2.402;2023-04-16T06:05:33;30.60;;;16.70;;
65853;SDS011;52627;48.838;2.402;2023-04-16T06:08:00;34.70;;;18.00;;
65853;SDS011;52627;48.838;2.402;2023-04-16T06:10:27;29.80;;;16.20;;
65853;SDS011;52627;48.838;2.402;2023-04-16T06:12:54;33.70;;;17.00;;
65853;SDS011;52627;48.838;2.402;2023-04-16T06:15:20;26.30;;;16.70;;
65853;SDS011;52627;48.838;2.402;2023-04-16T06:17:48;29.10;;;16.00;;
65853;SDS011;52627;48.838;2.402;2023-04-16T06:20:16;26.10;;;16.40;;
65853;SDS011;52627;48.838;2.402;2023-04-16T06:22:43;30.80;;;17.90;;
65853;SDS011;52627;48.838;2.402;2023-04-16T06:25:09;30.40;;;17.40;;
65853;SDS011;52627;48.838;2.402;2023-04-16T06:27:36;27.80;;;16.40;;
65853;SDS011;52627;48.838;2.402;2023-04-16T06:30:03;28.90;;;17.30;;
65853;SDS011;52627;48.838;2.402;2023-04-16T06:32:31;28.10;;;17.70;;
65853;SDS011;52627;48.838;2.402;2023-04-16T06:34:58;31.30;;;17.90;;
65853;SDS011;52627;48.838;2.402;2023-04-16T06:37:25;32.00;;;19.20;;
65853;SDS011;52627;48.838;2.402;2023-04-16T06:39:51;30.40;;;17.00;;
65853;SDS011;52627;48.838;2.402;2023-04-16T06:42:19;27.50;;;17.30;;
65853;SDS011;52627;48.838;2.402;2023-04-16T06:44:45;28.70;;;16.60;;
65853;SDS011;52627;48.838;2.402;2023-04-16T06:47:13;27.70;;;17.10;;
65853;SDS011;52627;48.838;2.402;2023-04-16T06:49:39;27.80;;;16.20;;
65853;SDS011;52627;48.838;2.402;2023-04-16T06:52:06;27.30;;;16.60;;
65853;SDS011;52627;48.838;2.402;2023-04-16T06:54:33;25.10;;;15.40;;
65853;SDS011;52627;48.838;2.402;2023-04-16T06:57:00;27.80;;;14.90;;
65853;SDS011;52627;48.838;2.402;2023-04-16T06:59:27;27.40;;;15.50;;
65853;SDS011;52627;48.838;2.402;2023-04-16T07:01:53;26.10;;;15.50;;
65853;SDS011;52627;48.838;2.402;2023-04-16T07:04:20;23.80;;;15.10;;
65853;SDS011;52627;48.838;2.402;2023-04-16T07:06:47;25.50;;;15.10;;
65853;SDS011;52627;48.838;2.402;2023-04-16T07:09:14;28.30;;;16.50;;
65853;SDS011;52627;48.838;2.402;2023-04-16T07:11:43;25.90;;;14.70;;
65853;SDS011;52627;48.838;2.402;2023-04-16T07:14:10;24.70;;;14.90;;
65853;SDS011;52627;48.838;2.402;2023-04-16T07:16:36;25.50;;;14.50;;
65853;SDS011;52627;48.838;2.402;2023-04-16T07:19:04;24.80;;;14.90;;
65853;SDS011;52627;48.838;2.402;2023-04-16T07:21:30;22.80;;;14.20;;
65853;SDS011;52627;48.838;2.402;2023-04-16T07:23:57;22.80;;;14.40;;
65853;SDS011;52627;48.838;2.402;2023-04-16T07:26:24;24.30;;;13.50;;
65853;SDS011;52627;48.838;2.402;2023-04-16T07:28:51;25.30;;;14.50;;
65853;SDS011;52627;48.838;2.402;2023-04-16T07:31:17;22.70;;;13.10;;
65853;SDS011;52627;48.838;2.402;2023-04-16T07:33:44;20.00;;;11.70;;
65853;SDS011;52627;48.838;2.402;2023-04-16T07:36:11;19.30;;;12.80;;
65853;SDS011;52627;48.838;2.402;2023-04-16T07:38:38;20.40;;;12.30;;
65853;SDS011;52627;48.838;2.402;2023-04-16T07:41:04;20.20;;;11.90;;
65853;SDS011;52627;48.838;2.402;2023-04-16T07:43:31;18.40;;;10.30;;
65853;SDS011;52627;48.838;2.402;2023-04-16T07:45:58;17.20;;;10.70;;
65853;SDS011;52627;48.838;2.402;2023-04-16T07:48:25;17.10;;;11.60;;
65853;SDS011;52627;48.838;2.402;2023-04-16T07:50:52;19.30;;;11.90;;
65853;SDS011;52627;48.838;2.402;2023-04-16T07:53:18;20.60;;;12.50;;
65853;SDS011;52627;48.838;2.402;2023-04-16T07:55:45;18.80;;;11.10;;
65853;SDS011;52627;48.838;2.402;2023-04-16T07:58:12;17.20;;;10.60;;
65853;SDS011;52627;48.838;2.402;2023-04-16T08:00:40;18.20;;;10.60;;
65853;SDS011;52627;48.838;2.402;2023-04-16T08:03:10;19.50;;;10.40;;
65853;SDS011;52627;48.838;2.402;2023-04-16T08:05:41;19.90;;;10.70;;
65853;SDS011;52627;48.838;2.402;2023-04-16T08:08:08;17.30;;;10.50;;
65853;SDS011;52627;48.838;2.402;2023-04-16T08:10:35;18.90;;;11.30;;
65853;SDS011;52627;48.838;2.402;2023-04-16T08:13:02;15.20;;;9.70;;
65853;SDS011;52627;48.838;2.402;2023-04-16T08:15:29;13.70;;;10.40;;
65853;SDS011;52627;48.838;2.402;2023-04-16T08:17:56;13.90;;;10.80;;
65853;SDS011;52627;48.838;2.402;2023-04-16T08:20:23;17.00;;;10.50;;
65853;SDS011;52627;48.838;2.402;2023-04-16T08:22:52;14.60;;;9.90;;
65853;SDS011;52627;48.838;2.402;2023-04-16T08:25:19;15.30;;;8.90;;
65853;SDS011;52627;48.838;2.402;2023-04-16T08:27:46;14.40;;;9.30;;
65853;SDS011;52627;48.838;2.402;2023-04-16T08:30:13;15.90;;;9.30;;
65853;SDS011;52627;48.838;2.402;2023-04-16T08:32:42;14.60;;;9.60;;
65853;SDS011;52627;48.838;2.402;2023-04-16T08:35:09;14.30;;;8.60;;
65853;SDS011;52627;48.838;2.402;2023-04-16T08:37:36;15.30;;;9.70;;
65853;SDS011;52627;48.838;2.402;2023-04-16T08:40:02;13.20;;;9.00;;
65853;SDS011;52627;48.838;2.402;2023-04-16T08:42:31;16.10;;;8.40;;
65853;SDS011;52627;48.838;2.402;2023-04-16T08:45:06;15.40;;;8.40;;
65853;SDS011;52627;48.838;2.402;2023-04-16T08:47:35;12.40;;;8.90;;
65853;SDS011;52627;48.838;2.402;2023-04-16T08:50:03;13.80;;;8.60;;
65853;SDS011;52627;48.838;2.402;2023-04-16T08:52:31;20.10;;;9.30;;
65853;SDS011;52627;48.838;2.402;2023-04-16T08:55:05;15.60;;;10.00;;
65853;SDS011;52627;48.838;2.402;2023-04-16T08:57:43;15.60;;;9.60;;
65853;SDS011;52627;48.838;2.402;2023-04-16T09:00:13;13.90;;;10.20;;
65853;SDS011;52627;48.838;2.402;2023-04-16T09:02:41;17.20;;;9.80;;
65853;SDS011;52627;48.838;2.402;2023-04-16T09:05:09;13.60;;;10.00;;
65853;SDS011;52627;48.838;2.402;2023-04-16T09:07:37;15.50;;;10.30;;
65853;SDS011;52627;48.838;2.402;2023-04-16T09:10:06;16.20;;;10.00;;
65853;SDS011;52627;48.838;2.402;2023-04-16T09:12:34;13.70;;;9.50;;
65853;SDS011;52627;48.838;2.402;2023-04-16T09:15:01;13.70;;;9.50;;
65853;SDS011;52627;48.838;2.402;2023-04-16T09:17:30;13.60;;;9.60;;
65853;SDS011;52627;48.838;2.402;2023-04-16T09:19:57;12.10;;;9.00;;
65853;SDS011;52627;48.838;2.402;2023-04-16T09:22:23;13.10;;;9.10;;
65853;SDS011;52627;48.838;2.402;2023-04-16T09:24:50;13.70;;;8.20;;
65853;SDS011;52627;48.838;2.402;2023-04-16T09:27:17;14.20;;;9.00;;
65853;SDS011;52627;48.838;2.402;2023-04-16T09:29:44;12.80;;;8.60;;
65853;SDS011;52627;48.838;2.402;2023-04-16T09:32:11;13.00;;;8.20;;
65853;SDS011;52627;48.838;2.402;2023-04-16T09:37:25;14.20;;;8.20;;
65853;SDS011;52627;48.838;2.402;2023-04-16T09:40:00;13.70;;;8.00;;
65853;SDS011;52627;48.838;2.402;2023-04-16T09:42:29;11.90;;;8.00;;
65853;SDS011;52627;48.838;2.402;2023-04-16T09:44:58;11.70;;;7.40;;
65853;SDS011;52627;48.838;2.402;2023-04-16T09:47:42;10.50;;;6.00;;
65853;SDS011;52627;48.838;2.402;2023-04-16T09:50:16;9.80;;;6.50;;
65853;SDS011;52627;48.838;2.402;2023-04-16T09:52:48;10.40;;;6.00;;
65853;SDS011;52627;48.838;2.402;2023-04-16T09:55:22;9.40;;;5.10;;
65853;SDS011;52627;48.838;2.402;2023-04-16T09:58:01;9.30;;;5.80;;
65853;SDS011;52627;48.838;2.402;2023-04-16T10:00:29;11.50;;;6.50;;
65853;SDS011;52627;48.838;2.402;2023-04-16T10:05:32;8.50;;;5.20;;
65853;SDS011;52627;48.838;2.402;2023-04-16T10:07:59;11.10;;;5.20;;
65853;SDS011;52627;48.838;2.402;2023-04-16T10:10:29;10.40;;;5.70;;
65853;SDS011;52627;48.838;2.402;2023-04-16T10:12:56;11.30;;;5.80;;
65853;SDS011;52627;48.838;2.402;2023-04-16T10:15:24;11.80;;;6.30;;
65853;SDS011;52627;48.838;2.402;2023-04-16T10:17:52;12.10;;;6.50;;
65853;SDS011;52627;48.838;2.402;2023-04-16T10:20:19;10.20;;;6.10;;
65853;SDS011;52627;48.838;2.402;2023-04-16T10:22:46;10.30;;;5.60;;
65853;SDS011;52627;48.838;2.402;2023-04-16T10:25:14;8.70;;;4.70;;
65853;SDS011;52627;48.838;2.402;2023-04-16T10:27:42;10.10;;;5.30;;
65853;SDS011;52627;48.838;2.402;2023-04-16T10:30:10;8.80;;;4.90;;
65853;SDS011;52627;48.838;2.402;2023-04-16T10:32:39;9.00;;;5.20;;
65853;SDS011;52627;48.838;2.402;2023-04-16T10:35:07;8.30;;;4.70;;
65853;SDS011;52627;48.838;2.402;2023-04-16T10:37:36;7.90;;;4.60;;
65853;SDS011;52627;48.838;2.402;2023-04-16T10:40:21;10.60;;;5.10;;
65853;SDS011;52627;48.838;2.402;2023-04-16T10:42:58;7.30;;;3.90;;
65853;SDS011;52627;48.838;2.402;2023-04-16T10:45:31;8.70;;;3.80;;
65853;SDS011;52627;48.838;2.402;2023-04-16T10:48:05;7.60;;;3.70;;
65853;SDS011;52627;48.838;2.402;2023-04-16T10:50:35;10.30;;;4.10;;
65853;SDS011;52627;48.838;2.402;2023-04-16T10:53:19;7.40;;;3.80;;
65853;SDS011;52627;48.838;2.402;2023-04-16T10:55:58;6.60;;;3.40;;
65853;SDS011;52627;48.838;2.402;2023-04-16T10:58:37;5.20;;;3.30;;
65853;SDS011;52627;48.838;2.402;2023-04-16T11:01:10;5.40;;;3.00;;
65853;SDS011;52627;48.838;2.402;2023-04-16T11:03:43;6.40;;;3.60;;
65853;SDS011;52627;48.838;2.402;2023-04-16T11:06:14;8.60;;;3.90;;
65853;SDS011;52627;48.838;2.402;2023-04-16T11:08:44;7.80;;;3.30;;
65853;SDS011;52627;48.838;2.402;2023-04-16T11:11:21;5.60;;;3.50;;
65853;SDS011;52627;48.838;2.402;2023-04-16T11:13:53;7.50;;;4.00;;
65853;SDS011;52627;48.838;2.402;2023-04-16T11:16:23;5.90;;;3.20;;
65853;SDS011;52627;48.838;2.402;2023-04-16T11:18:51;7.00;;;3.60;;
65853;SDS011;52627;48.838;2.402;2023-04-16T11:21:18;6.00;;;3.20;;
65853;SDS011;52627;48.838;2.402;2023-04-16T11:23:50;7.90;;;3.40;;
65853;SDS011;52627;48.838;2.402;2023-04-16T11:26:28;7.30;;;3.60;;
65853;SDS011;52627;48.838;2.402;2023-04-16T11:28:56;6.90;;;3.20;;
65853;SDS011;52627;48.838;2.402;2023-04-16T11:31:23;6.10;;;3.70;;
65853;SDS011;52627;48.838;2.402;2023-04-16T11:33:50;6.20;;;3.20;;
65853;SDS011;52627;48.838;2.402;2023-04-16T11:36:17;5.60;;;3.10;;
65853;SDS011;52627;48.838;2.402;2023-04-16T11:38:46;5.50;;;3.20;;
65853;SDS011;52627;48.838;2.402;2023-04-16T11:41:18;6.40;;;3.00;;
65853;SDS011;52627;48.838;2.402;2023-04-16T11:43:47;5.40;;;2.90;;
65853;SDS011;52627;48.838;2.402;2023-04-16T11:46:13;6.50;;;2.90;;
65853;SDS011;52627;48.838;2.402;2023-04-16T11:48:54;5.90;;;3.00;;
65853;SDS011;52627;48.838;2.402;2023-04-16T11:51:21;6.70;;;3.00;;
65853;SDS011;52627;48.838;2.402;2023-04-16T11:53:50;6.40;;;2.60;;
65853;SDS011;52627;48.838;2.402;2023-04-16T11:56:25;6.60;;;3.20;;
65853;SDS011;52627;48.838;2.402;2023-04-16T11:59:10;5.60;;;2.70;;
65853;SDS011;52627;48.838;2.402;2023-04-16T12:01:44;5.30;;;2.50;;
65853;SDS011;52627;48.838;2.402;2023-04-16T12:04:14;6.70;;;2.80;;
65853;SDS011;52627;48.838;2.402;2023-04-16T12:07:04;5.00;;;2.60;;
65853;SDS011;52627;48.838;2.402;2023-04-16T12:09:42;6.10;;;2.90;;
65853;SDS011;52627;48.838;2.402;2023-04-16T12:12:26;5.20;;;2.50;;
65853;SDS011;52627;48.838;2.402;2023-04-16T12:14:56;7.20;;;3.40;;
65853;SDS011;52627;48.838;2.402;2023-04-16T12:17:25;4.90;;;2.70;;
65853;SDS011;52627;48.838;2.402;2023-04-16T12:19:57;6.20;;;2.70;;
65853;SDS011;52627;48.838;2.402;2023-04-16T12:22:33;5.50;;;2.40;;
65853;SDS011;52627;48.838;2.402;2023-04-16T12:25:10;6.30;;;2.60;;
65853;SDS011;52627;48.838;2.402;2023-04-16T12:30:18;4.80;;;2.30;;
65853;SDS011;52627;48.838;2.402;2023-04-16T12:32:48;5.60;;;2.80;;
65853;SDS011;52627;48.838;2.402;2023-04-16T12:35:32;4.60;;;2.50;;
65853;SDS011;52627;48.838;2.402;2023-04-16T12:37:59;5.00;;;2.70;;
65853;SDS011;52627;48.838;2.402;2023-04-16T12:40:26;5.80;;;2.30;;
65853;SDS011;52627;48.838;2.402;2023-04-16T12:42:54;4.00;;;2.50;;
65853;SDS011;52627;48.838;2.402;2023-04-16T12:45:21;5.70;;;3.00;;
65853;SDS011;52627;48.838;2.402;2023-04-16T12:47:48;5.60;;;2.80;;
65853;SDS011;52627;48.838;2.402;2023-04-16T12:50:16;5.50;;;2.70;;
65853;SDS011;52627;48.838;2.402;2023-04-16T12:52:43;5.00;;;2.80;;
65853;SDS011;52627;48.838;2.402;2023-04-16T12:55:10;6.10;;;2.60;;
65853;SDS011;52627;48.838;2.402;2023-04-16T12:57:39;6.20;;;2.90;;
65853;SDS011;52627;48.838;2.402;2023-04-16T13:00:07;7.30;;;3.00;;
65853;SDS011;52627;48.838;2.402;2023-04-16T13:02:36;4.20;;;2.60;;
65853;SDS011;52627;48.838;2.402;2023-04-16T13:05:04;6.40;;;2.90;;
65853;SDS011;52627;48.838;2.402;2023-04-16T13:07:31;4.30;;;2.70;;
65853;SDS011;52627;48.838;2.402;2023-04-16T13:10:00;7.20;;;3.10;;
65853;SDS011;52627;48.838;2.402;2023-04-16T13:12:26;4.20;;;2.60;;
65853;SDS011;52627;48.838;2.402;2023-04-16T13:14:54;4.00;;;2.10;;
65853;SDS011;52627;48.838;2.402;2023-04-16T13:17:21;6.10;;;2.50;;
65853;SDS011;52627;48.838;2.402;2023-04-16T13:19:48;5.20;;;2.20;;
65853;SDS011;52627;48.838;2.402;2023-04-16T13:22:15;5.90;;;2.50;;
65853;SDS011;52627;48.838;2.402;2023-04-16T13:24:42;5.20;;;2.50;;
65853;SDS011;52627;48.838;2.402;2023-04-16T13:27:08;6.70;;;2.30;;
65853;SDS011;52627;48.838;2.402;2023-04-16T13:29:35;5.70;;;2.10;;
65853;SDS011;52627;48.838;2.402;2023-04-16T13:32:02;3.50;;;1.90;;
65853;SDS011;52627;48.838;2.402;2023-04-16T13:34:31;5.70;;;2.40;;
65853;SDS011;52627;48.838;2.402;2023-04-16T13:36:58;6.70;;;2.50;;
65853;SDS011;52627;48.838;2.402;2023-04-16T13:39:24;5.60;;;2.40;;
65853;SDS011;52627;48.838;2.402;2023-04-16T13:41:51;5.70;;;2.10;;
65853;SDS011;52627;48.838;2.402;2023-04-16T13:44:18;4.30;;;2.40;;
65853;SDS011;52627;48.838;2.402;2023-04-16T13:46:45;9.30;;;2.50;;
65853;SDS011;52627;48.838;2.402;2023-04-16T13:49:13;5.60;;;2.40;;
65853;SDS011;52627;48.838;2.402;2023-04-16T13:51:43;6.80;;;2.50;;
65853;SDS011;52627;48.838;2.402;2023-04-16T13:54:10;4.50;;;2.30;;
65853;SDS011;52627;48.838;2.402;2023-04-16T13:56:37;4.20;;;2.30;;
65853;SDS011;52627;48.838;2.402;2023-04-16T13:59:03;4.90;;;2.00;;
65853;SDS011;52627;48.838;2.402;2023-04-16T14:01:31;5.00;;;2.10;;
65853;SDS011;52627;48.838;2.402;2023-04-16T14:03:57;6.10;;;2.00;;
65853;SDS011;52627;48.838;2.402;2023-04-16T14:06:27;5.00;;;2.00;;
65853;SDS011;52627;48.838;2.402;2023-04-16T14:08:54;3.90;;;2.00;;
65853;SDS011;52627;48.838;2.402;2023-04-16T14:11:21;4.30;;;2.10;;
65853;SDS011;52627;48.838;2.402;2023-04-16T14:13:49;4.50;;;2.10;;
65853;SDS011;52627;48.838;2.402;2023-04-16T14:16:16;6.80;;;2.30;;
65853;SDS011;52627;48.838;2.402;2023-04-16T14:18:42;4.40;;;2.30;;
65853;SDS011;52627;48.838;2.402;2023-04-16T14:21:09;5.90;;;2.60;;
65853;SDS011;52627;48.838;2.402;2023-04-16T14:23:36;5.30;;;2.20;;
65853;SDS011;52627;48.838;2.402;2023-04-16T14:26:03;6.10;;;2.80;;
65853;SDS011;52627;48.838;2.402;2023-04-16T14:28:30;6.50;;;2.50;;
65853;SDS011;52627;48.838;2.402;2023-04-16T14:30:57;7.30;;;2.80;;
65853;SDS011;52627;48.838;2.402;2023-04-16T14:33:23;7.20;;;2.70;;
65853;SDS011;52627;48.838;2.402;2023-04-16T14:35:50;5.40;;;2.50;;
65853;SDS011;52627;48.838;2.402;2023-04-16T14:38:17;6.30;;;2.80;;
65853;SDS011;52627;48.838;2.402;2023-04-16T14:40:44;4.80;;;2.50;;
65853;SDS011;52627;48.838;2.402;2023-04-16T14:43:11;8.60;;;3.10;;
65853;SDS011;52627;48.838;2.402;2023-04-16T14:45:37;6.40;;;2.70;;
65853;SDS011;52627;48.838;2.402;2023-04-16T14:48:04;6.10;;;2.60;;
65853;SDS011;52627;48.838;2.402;2023-04-16T14:50:34;4.10;;;2.20;;
65853;SDS011;52627;48.838;2.402;2023-04-16T14:53:04;4.70;;;2.10;;